Time;durP1;ratioP1;P1;durP2;ratioP2;P2;SDS_P1;SDS_P2;PMS_P1;PMS_P2;Temp;Humidity;BMP_temperature;BMP_pressure;BME280_temperature;BME280_humidity;BME280_pressure;Samples;Min_cycle;Max_cycle;Signal;HPM_P1;HPM_P2
2022/08/24 00:01:10;;;;;;;18.33;12.95;;;;;;;21.13;100.00;99050.50;4372087;32;20170;-74
2022/08/24 00:03:38;;;;;;;15.80;10.63;;;;;;;20.94;100.00;99015.19;4374327;32;20071;-73
2022/08/24 00:06:07;;;;;;;14.18;10.30;;;;;;;21.20;100.00;99056.28;4380734;32;20027;-72
2022/08/24 00:08:33;;;;;;;16.55;10.23;;;;;;;21.22;100.00;99048.56;4381071;32;20032;-75
2022/08/24 00:11:00;;;;;;;20.33;10.48;;;;;;;21.06;100.00;99026.34;4380277;32;20050;-73
2022/08/24 00:13:33;;;;;;;15.93;10.15;;;;;;;21.13;100.00;99042.28;4378295;32;20100;-73
2022/08/24 00:16:01;;;;;;;14.15;9.55;;;;;;;20.94;100.00;99026.94;4371994;32;20042;-73
2022/08/24 00:18:27;;;;;;;13.20;9.68;;;;;;;20.86;100.00;99014.06;4375259;32;20410;-73
2022/08/24 00:20:54;;;;;;;14.48;10.10;;;;;;;21.14;100.00;99047.44;4396249;32;20035;-74
2022/08/24 00:23:20;;;;;;;14.70;9.55;;;;;;;21.20;100.00;99053.56;4400926;32;20055;-73
2022/08/24 00:25:47;;;;;;;17.15;8.43;;;;;;;20.89;100.00;99007.94;4369922;32;20057;-72
2022/08/24 00:28:14;;;;;;;16.60;8.50;;;;;;;20.96;100.00;99026.63;4372080;32;20065;-72
2022/08/24 00:30:41;;;;;;;9.18;7.43;;;;;;;20.98;100.00;99025.19;4368699;32;20055;-72
2022/08/24 00:33:07;;;;;;;15.88;8.77;;;;;;;20.80;100.00;98988.75;4368241;32;20344;-74
2022/08/24 00:35:33;;;;;;;17.90;7.37;;;;;;;20.67;100.00;98957.66;4339166;33;20069;-73
2022/08/24 00:38:00;;;;;;;12.75;8.38;;;;;;;21.03;100.00;98992.19;4340294;33;20066;-72
2022/08/24 00:40:33;;;;;;;13.50;7.40;;;;;;;20.72;100.00;98953.19;4339361;33;20128;-73
2022/08/24 00:43:03;;;;;;;12.05;7.70;;;;;;;21.21;100.00;99036.03;4338355;32;20032;-74
2022/08/24 00:45:35;;;;;;;10.55;7.10;;;;;;;21.18;100.00;99022.97;4340101;33;20060;-75
2022/08/24 00:48:10;;;;;;;12.10;7.53;;;;;;;21.26;100.00;99037.78;4340113;33;20054;-72
2022/08/24 00:50:48;;;;;;;9.45;7.12;;;;;;;21.17;100.00;99030.38;4333291;33;20043;-73
2022/08/24 00:53:25;;;;;;;16.70;7.65;;;;;;;21.02;100.00;98990.56;4339542;33;20130;-73
2022/08/24 00:55:56;;;;;;;9.23;7.93;;;;;;;21.18;100.00;99028.44;4342297;32;20350;-73
2022/08/24 00:58:34;;;;;;;9.60;7.90;;;;;;;20.88;100.00;98984.44;4353082;32;20090;-75
2022/08/24 01:01:05;;;;;;;15.73;7.45;;;;;;;20.98;100.00;99027.94;4353480;32;20149;-73
2022/08/24 01:03:33;;;;;;;14.02;7.70;;;;;;;20.98;100.00;99027.09;4352725;32;20073;-73
2022/08/24 01:05:59;;;;;;;16.15;8.55;;;;;;;20.57;100.00;98998.97;4339054;32;20035;-73
2022/08/24 01:08:26;;;;;;;14.70;8.38;;;;;;;20.53;100.00;99006.19;4355746;32;20069;-72
2022/08/24 01:10:59;;;;;;;10.60;8.27;;;;;;;20.33;100.00;98986.50;4361088;32;20043;-74
2022/08/24 01:13:27;;;;;;;14.75;7.93;;;;;;;20.80;100.00;99042.69;4367242;32;20289;-73
2022/08/24 01:15:58;;;;;;;10.82;7.97;;;;;;;20.90;100.00;99026.00;4355393;32;20042;-73
2022/08/24 01:21:53;;;;;;;9.88;7.93;;;;;;;20.72;100.00;98986.03;4340383;33;20048;-73
2022/08/24 01:24:19;;;;;;;13.30;8.30;;;;;;;21.04;100.00;99037.62;4333563;32;20121;-71
2022/08/24 01:26:48;;;;;;;15.18;8.25;;;;;;;20.87;100.00;99015.69;4344933;32;20044;-71
2022/08/24 01:29:22;;;;;;;14.05;8.90;;;;;;;20.86;100.00;99041.41;4347597;32;20024;-72
2022/08/24 01:31:49;;;;;;;14.23;8.38;;;;;;;20.80;100.00;99027.06;4348607;32;20083;-73
2022/08/24 01:34:15;;;;;;;13.40;8.85;;;;;;;20.64;100.00;98991.12;4347223;32;20458;-73
2022/08/24 01:36:54;;;;;;;11.07;9.63;;;;;;;20.58;100.00;99008.81;4332027;33;20111;-73
2022/08/24 01:39:25;;;;;;;13.65;9.40;;;;;;;20.74;100.00;99038.47;4327403;33;20058;-75
2022/08/24 01:41:52;;;;;;;13.57;8.50;;;;;;;21.00;100.00;99047.56;4330571;33;20070;-73
2022/08/24 01:44:20;;;;;;;15.00;10.30;;;;;;;21.02;100.00;99050.78;4342646;33;20151;-72
2022/08/24 01:46:48;;;;;;;19.27;9.90;;;;;;;20.92;100.00;99011.97;4349045;32;20043;-72
2022/08/24 01:49:16;;;;;;;13.88;10.10;;;;;;;20.96;100.00;99046.59;4364060;32;20019;-74
2022/08/24 01:51:45;;;;;;;14.07;10.23;;;;;;;21.01;100.00;99046.47;4381852;32;20035;-72
2022/08/24 01:54:12;;;;;;;13.48;10.57;;;;;;;21.08;100.00;99042.41;4383589;32;20072;-73
2022/08/24 01:56:39;;;;;;;15.77;10.05;;;;;;;21.31;100.00;99054.88;4381506;32;20404;-72
2022/08/24 01:59:06;;;;;;;19.95;10.38;;;;;;;20.95;100.00;99017.63;4383797;32;20406;-72
2022/08/24 02:01:38;;;;;;;17.05;10.95;;;;;;;21.23;100.00;99058.41;4380739;32;20065;-73
2022/08/24 02:04:07;;;;;;;21.48;11.90;;;;;;;21.10;100.00;99064.81;4381324;32;20051;-71
2022/08/24 02:06:34;;;;;;;19.98;11.48;;;;;;;21.04;100.00;99075.94;4382738;32;20045;-71
2022/08/24 02:09:01;;;;;;;17.77;11.48;;;;;;;20.81;100.00;99034.16;4400847;32;20064;-71
2022/08/24 02:11:32;;;;;;;16.90;11.43;;;;;;;20.57;100.00;99018.13;4396512;32;20083;-73
2022/08/24 02:13:59;;;;;;;22.67;13.15;;;;;;;20.77;100.00;99073.41;4400723;32;20098;-71
2022/08/24 02:16:26;;;;;;;17.67;11.60;;;;;;;20.72;100.00;99051.69;4400557;32;20050;-73
2022/08/24 02:18:53;;;;;;;19.73;10.45;;;;;;;20.62;100.00;99048.06;4399773;32;20046;-72
2022/08/24 02:21:19;;;;;;;17.15;11.25;;;;;;;20.53;100.00;99043.69;4390579;32;20244;-74
2022/08/24 02:23:46;;;;;;;19.58;12.95;;;;;;;20.60;100.00;99069.47;4399881;32;20043;-73
2022/08/24 02:26:13;;;;;;;17.98;12.48;;;;;;;20.63;100.00;99071.56;4398531;32;20133;-72
2022/08/24 02:28:39;;;;;;;22.67;13.27;;;;;;;20.25;100.00;99039.22;4395446;32;20117;-72
2022/08/24 02:31:10;;;;;;;28.95;14.48;;;;;;;20.53;100.00;99074.56;4400011;32;20165;-73
2022/08/24 02:33:38;;;;;;;24.30;13.62;;;;;;;20.53;100.00;99071.84;4399068;32;20385;-74
2022/08/24 02:36:05;;;;;;;31.55;15.35;;;;;;;20.54;100.00;99084.41;4394979;32;20782;-72
2022/08/24 02:38:32;;;;;;;40.08;15.80;;;;;;;20.52;100.00;99081.19;4400127;32;20169;-72
2022/08/24 02:40:59;;;;;;;26.95;15.45;;;;;;;20.29;100.00;99050.31;4400021;32;20100;-72
2022/08/24 02:43:26;;;;;;;28.33;16.40;;;;;;;20.41;100.00;99056.03;4405629;32;20187;-72
2022/08/24 02:45:54;;;;;;;26.37;15.60;;;;;;;20.52;100.00;99092.13;4407413;32;20036;-72
2022/08/24 02:48:21;;;;;;;25.70;15.38;;;;;;;20.50;100.00;99088.88;4400100;32;20038;-72
2022/08/24 02:50:50;;;;;;;20.55;15.23;;;;;;;20.42;100.00;99097.84;4378072;32;20080;-72
2022/08/24 02:53:19;;;;;;;24.52;15.63;;;;;;;20.46;100.00;99104.31;4378867;32;20046;-72
2022/08/24 02:55:46;;;;;;;19.33;15.38;;;;;;;20.59;100.00;99108.87;4376763;32;20048;-73
2022/08/24 02:58:15;;;;;;;22.35;14.82;;;;;;;20.62;100.00;99102.78;4375531;32;20407;-72
2022/08/24 03:00:44;;;;;;;23.77;16.55;;;;;;;20.49;100.00;99079.06;4358520;32;20444;-73
2022/08/24 03:03:10;;;;;;;22.42;16.17;;;;;;;20.64;100.00;99105.22;4366562;32;20032;-73
2022/08/24 03:05:38;;;;;;;40.88;16.77;;;;;;;20.63;100.00;99095.38;4352699;32;20058;-74
2022/08/24 03:08:04;;;;;;;33.90;17.30;;;;;;;20.63;100.00;99077.03;4363908;32;20055;-73
2022/08/24 03:10:32;;;;;;;33.63;19.27;;;;;;;20.64;100.00;99089.59;4363090;32;20027;-72
2022/08/24 03:13:00;;;;;;;32.47;17.65;;;;;;;20.47;100.00;99062.16;4366275;32;20075;-73
2022/08/24 03:15:26;;;;;;;24.40;17.00;;;;;;;20.77;100.00;99103.50;4366567;32;20047;-72
2022/08/24 03:17:52;;;;;;;27.67;17.20;;;;;;;20.83;100.00;99107.72;4365940;32;20047;-73
2022/08/24 03:20:21;;;;;;;26.00;17.12;;;;;;;20.74;100.00;99104.13;4368995;32;20467;-72
2022/08/24 03:22:48;;;;;;;28.10;18.85;;;;;;;20.78;100.00;99105.12;4380476;32;20039;-72
2022/08/24 03:25:16;;;;;;;40.10;18.73;;;;;;;20.77;100.00;99104.31;4379005;32;20032;-72
2022/08/24 03:27:42;;;;;;;104.15;19.42;;;;;;;20.80;100.00;99102.88;4384391;32;20047;-73
2022/08/24 03:30:11;;;;;;;168.52;20.30;;;;;;;20.77;100.00;99104.31;4376097;32;20087;-72
2022/08/24 03:32:40;;;;;;;85.43;18.60;;;;;;;20.71;100.00;99111.06;4392552;32;20057;-72
2022/08/24 03:35:08;;;;;;;256.65;23.60;;;;;;;20.53;100.00;99071.84;4399156;32;20035;-72
2022/08/24 03:37:36;;;;;;;283.30;20.15;;;;;;;20.66;100.00;99070.97;4400322;32;20143;-75
2022/08/24 03:40:04;;;;;;;75.60;16.33;;;;;;;20.64;100.00;99116.97;4399411;32;20043;-73
2022/08/24 03:42:32;;;;;;;51.78;16.87;;;;;;;20.51;100.00;99074.09;4401165;32;20051;-73
2022/08/24 03:44:59;;;;;;;45.70;17.73;;;;;;;20.68;100.00;99115.22;4401496;32;20401;-72
2022/08/24 03:47:25;;;;;;;43.28;16.77;;;;;;;20.77;100.00;99119.94;4399792;32;20075;-74
2022/08/24 03:49:52;;;;;;;37.20;16.83;;;;;;;20.78;100.00;99122.34;4398983;32;20047;-72
2022/08/24 03:52:19;;;;;;;32.97;15.50;;;;;;;20.39;100.00;99065.66;4404480;32;20063;-72
2022/08/24 03:54:45;;;;;;;27.67;15.65;;;;;;;20.60;100.00;99090.53;4404044;32;20375;-73
2022/08/24 03:57:13;;;;;;;35.92;15.85;;;;;;;20.90;100.00;99124.50;4354844;32;20039;-72
2022/08/24 03:59:40;;;;;;;33.63;16.37;;;;;;;20.68;100.00;99092.53;4355340;32;20105;-72
2022/08/24 04:02:07;;;;;;;24.63;16.35;;;;;;;20.77;100.00;99119.94;4305503;33;20067;-73
2022/08/24 04:04:34;;;;;;;56.92;16.40;;;;;;;20.68;100.00;99096.06;4310332;33;20033;-74
2022/08/24 04:07:01;;;;;;;53.17;16.10;;;;;;;20.87;100.00;99119.66;4309967;33;20066;-72
2022/08/24 04:09:29;;;;;;;33.10;16.00;;;;;;;20.94;100.00;99122.72;4296215;33;20081;-74
2022/08/24 04:11:55;;;;;;;31.45;16.42;;;;;;;20.94;100.00;99120.00;4275378;33;20060;-74
2022/08/24 04:14:23;;;;;;;30.50;15.35;;;;;;;20.96;100.00;99120.47;4281971;33;20049;-74
2022/08/24 04:16:49;;;;;;;33.47;15.32;;;;;;;20.70;100.00;99086.75;4281615;33;20076;-72
2022/08/24 04:19:17;;;;;;;25.92;14.85;;;;;;;21.01;100.00;99119.53;4280741;33;20088;-72
2022/08/24 04:21:44;;;;;;;27.73;15.20;;;;;;;21.02;100.00;99121.94;4264199;33;20202;-73
2022/08/24 04:24:11;;;;;;;30.75;16.87;;;;;;;20.95;100.00;99110.69;4267060;33;20836;-72
2022/08/24 04:26:40;;;;;;;24.60;16.25;;;;;;;21.00;100.00;99118.72;4266879;33;20059;-71
2022/08/24 04:29:10;;;;;;;30.23;15.48;;;;;;;20.92;100.00;99122.25;4267276;33;20076;-72
2022/08/24 04:31:40;;;;;;;24.40;15.55;;;;;;;20.88;100.00;99115.78;4264524;33;20470;-72
2022/08/24 04:34:08;;;;;;;28.62;15.50;;;;;;;20.88;100.00;99093.91;4294987;33;20239;-71
2022/08/24 04:36:38;;;;;;;28.08;15.48;;;;;;;20.83;100.00;99086.63;4326002;33;20373;-71
2022/08/24 04:39:05;;;;;;;25.50;15.07;;;;;;;20.93;100.00;99085.53;4325843;33;20053;-72
2022/08/24 04:41:41;;;;;;;34.08;14.32;;;;;;;20.98;100.00;99088.16;4341156;32;20083;-72
2022/08/24 04:44:08;;;;;;;24.33;13.43;;;;;;;20.97;100.00;99083.78;4351788;32;20087;-72
2022/08/24 04:46:36;;;;;;;25.30;14.10;;;;;;;21.23;100.00;99113.16;4329434;33;20069;-72
2022/08/24 04:49:03;;;;;;;23.62;13.57;;;;;;;21.28;100.00;99125.91;4339764;32;20122;-73
2022/08/24 04:51:29;;;;;;;20.98;13.20;;;;;;;21.08;100.00;99091.69;4336974;33;20072;-74
2022/08/24 04:53:58;;;;;;;19.90;13.35;;;;;;;21.02;100.00;99088.31;4352745;32;20095;-72
2022/08/24 04:56:31;;;;;;;24.17;13.57;;;;;;;21.22;100.00;99115.09;4353484;32;20073;-72
2022/08/24 04:58:59;;;;;;;20.65;12.80;;;;;;;21.32;100.00;99132.37;4353342;32;20040;-72
2022/08/24 05:01:28;;;;;;;22.45;12.68;;;;;;;21.54;100.00;99120.47;4348313;32;20058;-72
2022/08/24 05:03:55;;;;;;;17.52;11.70;;;;;;;21.18;100.00;99099.63;4333908;33;20171;-72
2022/08/24 05:06:25;;;;;;;21.12;13.43;;;;;;;21.19;100.00;99087.56;4346742;32;20125;-73
2022/08/24 05:08:51;;;;;;;16.67;12.13;;;;;;;21.57;100.00;99130.81;4305127;33;20037;-73
2022/08/24 05:11:21;;;;;;;20.88;11.07;;;;;;;21.62;100.00;99127.94;4297462;33;20037;-72
2022/08/24 05:13:51;;;;;;;14.27;11.88;;;;;;;21.59;100.00;99128.56;4306536;33;20122;-73
2022/08/24 05:16:17;;;;;;;17.90;11.85;;;;;;;21.59;100.00;99129.38;4308724;33;20517;-73
2022/08/24 05:18:45;;;;;;;31.50;12.70;;;;;;;21.57;100.00;99141.75;4322190;33;20029;-76
2022/08/24 05:21:14;;;;;;;19.45;12.07;;;;;;;21.64;100.00;99136.62;4323234;33;20036;-72
2022/08/24 05:23:42;;;;;;;20.25;13.23;;;;;;;21.63;100.00;99135.00;4324504;33;20062;-73
2022/08/24 05:26:12;;;;;;;23.48;12.00;;;;;;;21.87;100.00;99128.25;4323966;33;20036;-74
2022/08/24 05:28:39;;;;;;;16.83;11.30;;;;;;;21.77;100.00;99091.81;4321598;33;20084;-78
2022/08/24 05:31:18;;;;;;;16.52;11.82;;;;;;;21.77;100.00;99094.56;4319898;33;20048;-73
2022/08/24 05:33:45;;;;;;;19.37;11.55;;;;;;;21.79;100.00;99109.87;4322322;33;20479;-72
2022/08/24 05:36:24;;;;;;;19.00;10.68;;;;;;;21.75;100.00;99112.47;4345326;33;20024;-73
2022/08/24 05:38:53;;;;;;;21.00;11.65;;;;;;;21.80;100.00;99111.50;4349980;32;20121;-73
2022/08/24 05:41:20;;;;;;;18.95;12.05;;;;;;;21.85;100.00;99103.09;4345506;32;20044;-73
2022/08/24 05:43:51;;;;;;;26.95;14.07;;;;;;;22.11;100.00;99144.19;4346598;33;20096;-73
2022/08/24 05:46:19;;;;;;;18.27;13.70;;;;;;;21.96;100.00;99131.81;4373872;32;20030;-72
2022/08/24 05:48:46;;;;;;;20.67;12.95;;;;;;;21.79;100.00;99099.72;4395809;32;20038;-72
2022/08/24 05:51:14;;;;;;;25.55;14.32;;;;;;;21.80;100.00;99149.88;4397862;32;20344;-72
2022/08/24 05:53:41;;;;;;;21.27;14.15;;;;;;;21.71;100.00;99152.59;4398131;32;20050;-73
2022/08/24 05:56:10;;;;;;;27.83;16.12;;;;;;;21.62;100.00;99103.28;4397973;32;20057;-72
2022/08/24 05:58:37;;;;;;;31.20;16.45;;;;;;;22.21;100.00;99148.53;4396017;32;20030;-78
2022/08/24 06:01:10;;;;;;;26.67;15.93;;;;;;;22.07;100.00;99155.03;4379539;32;20077;-72
2022/08/24 06:03:38;;;;;;;23.58;14.80;;;;;;;21.88;100.00;99140.84;4379710;32;20050;-73
2022/08/24 06:06:07;;;;;;;31.23;17.25;;;;;;;21.69;100.00;99111.00;4371864;32;20422;-73
2022/08/24 06:08:35;;;;;;;26.27;17.37;;;;;;;21.97;100.00;99149.88;4357390;32;20049;-74
2022/08/24 06:11:02;;;;;;;40.92;18.60;;;;;;;21.85;100.00;99152.44;4353248;32;20485;-71
2022/08/24 06:13:29;;;;;;;34.47;19.10;;;;;;;21.85;100.00;99136.78;4343389;32;20061;-73
2022/08/24 06:16:06;;;;;;;26.70;19.30;;;;;;;21.82;100.00;99136.62;4342056;32;20054;-74
2022/08/24 06:18:34;;;;;;;28.20;19.52;;;;;;;21.74;100.00;99151.94;4311542;33;20093;-78
2022/08/24 06:21:06;;;;;;;28.00;19.15;;;;;;;21.52;100.00;99133.69;4316466;33;20065;-74
2022/08/24 06:23:33;;;;;;;;;;;;;;;21.42;100.00;99157.50;4315118;33;20251;-73
2022/08/24 06:28:47;;;;;;;43.72;18.85;;;;;;;21.70;100.00;99157.28;4300122;33;20057;-74
2022/08/24 06:31:13;;;;;;;30.70;18.98;;;;;;;21.52;100.00;99118.09;4312175;33;20048;-73
2022/08/24 06:33:40;;;;;;;31.12;18.60;;;;;;;21.74;100.00;99158.22;4317189;33;20044;-73
2022/08/24 06:36:07;;;;;;;39.28;19.15;;;;;;;21.44;100.00;99131.72;4312290;33;20063;-73
2022/08/24 06:38:34;;;;;;;100.07;22.30;;;;;;;21.68;100.00;99164.97;4302352;33;20076;-76
2022/08/24 06:41:04;;;;;;;99.82;23.10;;;;;;;21.76;100.00;99166.12;4301409;33;20485;-73
2022/08/24 06:43:30;;;;;;;36.13;20.83;;;;;;;21.74;100.00;99171.94;4315850;33;20062;-73
2022/08/24 06:45:59;;;;;;;38.33;20.50;;;;;;;21.89;100.00;99175.31;4340529;32;20091;-73
2022/08/24 06:48:26;;;;;;;37.00;20.30;;;;;;;21.59;100.00;99139.53;4319900;33;20032;-73
2022/08/24 06:50:53;;;;;;;33.10;19.73;;;;;;;21.80;100.00;99133.44;4376685;32;20166;-74
2022/08/24 06:53:20;;;;;;;44.67;19.98;;;;;;;22.21;100.00;99159.50;4382266;32;20336;-72
2022/08/24 06:55:53;;;;;;;38.72;18.67;;;;;;;22.26;100.00;99162.13;4380127;32;20057;-73
2022/08/24 06:58:22;;;;;;;38.08;17.35;;;;;;;21.96;100.00;99164.69;4360513;32;20475;-74
2022/08/24 07:00:48;;;;;;;30.40;18.62;;;;;;;22.03;100.00;99159.53;4334724;33;20032;-72
2022/08/24 07:03:16;;;;;;;32.95;18.00;;;;;;;21.98;100.00;99156.16;4335383;33;20079;-72
2022/08/24 07:06:11;;;;;;;29.92;17.10;;;;;;;22.04;100.00;99120.03;4320538;33;20507;-72
2022/08/24 07:08:43;;;;;;;32.38;16.60;;;;;;;22.28;100.00;99159.84;4277707;33;20037;-73
2022/08/24 07:11:16;;;;;;;28.00;16.08;;;;;;;22.03;100.00;99175.97;4269888;33;20057;-72
2022/08/24 07:13:45;;;;;;;24.20;16.05;;;;;;;21.82;100.00;99139.37;4280317;33;20029;-71
2022/08/24 07:16:14;;;;;;;22.45;14.80;;;;;;;22.08;100.00;99173.09;4277645;33;20041;-72
2022/08/24 07:18:42;;;;;;;24.98;14.45;;;;;;;22.10;100.00;99181.78;4266055;33;20067;-72
2022/08/24 07:21:08;;;;;;;25.65;15.02;;;;;;;22.08;100.00;99178.56;4249368;33;20038;-71
2022/08/24 07:23:37;;;;;;;27.98;15.05;;;;;;;21.88;100.00;99151.81;4264246;33;20075;-71
2022/08/24 07:26:17;;;;;;;29.87;15.70;;;;;;;22.09;100.00;99185.66;4270196;33;20238;-72
2022/08/24 07:28:44;;;;;;;21.95;12.27;;;;;;;21.97;100.00;99149.88;4279662;33;20429;-71
2022/08/24 07:31:12;;;;;;;22.13;12.48;;;;;;;22.08;100.00;99195.03;4294578;33;20044;-70
2022/08/24 07:33:46;;;;;;;22.27;13.50;;;;;;;22.12;100.00;99190.50;4301482;33;20048;-70
2022/08/24 07:36:13;;;;;;;23.67;15.32;;;;;;;21.95;100.00;99163.06;4305145;33;20102;-70
2022/08/24 07:38:40;;;;;;;23.45;15.25;;;;;;;21.99;100.00;99150.34;4325361;33;20066;-70
2022/08/24 07:41:07;;;;;;;21.37;12.80;;;;;;;22.08;100.00;99162.13;4324803;33;20044;-72
2022/08/24 07:43:33;;;;;;;21.58;12.07;;;;;;;22.18;100.00;99176.63;4321919;33;20028;-77
2022/08/24 07:46:00;;;;;;;21.00;11.35;;;;;;;22.08;100.00;99161.28;4347025;32;20085;-70
2022/08/24 07:48:27;;;;;;;18.55;11.65;;;;;;;22.32;100.00;99193.72;4352862;32;20044;-71
2022/08/24 07:50:55;;;;;;;19.17;12.48;;;;;;;22.17;100.00;99153.88;4370251;32;20176;-70
2022/08/24 07:53:21;;;;;;;21.73;12.37;;;;;;;22.33;100.00;99154.22;4370286;32;20055;-71
2022/08/24 07:55:54;;;;;;;20.85;12.93;;;;;;;22.37;100.00;99179.88;4382902;32;20386;-71
2022/08/24 07:58:21;;;;;;;29.52;16.58;;;;;;;22.67;100.00;99196.41;4379324;32;20098;-71
2022/08/24 08:00:48;;;;;;;16.48;11.02;;;;;;;22.44;100.00;99158.22;4382368;32;20402;-70
2022/08/24 08:03:15;;;;;;;19.37;11.40;;;;;;;22.76;100.00;99197.22;4382952;32;20166;-70
2022/08/24 08:05:42;;;;;;;25.00;13.57;;;;;;;22.76;100.00;99202.69;4385677;32;20035;-72
2022/08/24 08:08:10;;;;;;;19.65;13.85;;;;;;;22.86;100.00;99201.53;4382844;32;20086;-70
2022/08/24 08:10:39;;;;;;;22.92;11.12;;;;;;;22.96;100.00;99205.88;4376808;32;20100;-70
2022/08/24 08:13:06;;;;;;;19.52;12.35;;;;;;;22.40;100.00;99154.53;4375315;32;20035;-71
2022/08/24 08:15:33;;;;;;;22.15;11.90;;;;;;;22.59;100.00;99208.22;4377500;32;20063;-70
2022/08/24 08:18:01;;;;;;;17.98;11.68;;;;;;;22.56;100.00;99214.38;4369776;32;20110;-70
2022/08/24 08:20:28;;;;;;;24.10;11.20;;;;;;;22.74;100.00;99221.44;4379012;32;20043;-71
2022/08/24 08:25:53;;;;;;;31.62;13.10;;;;;;;22.80;100.00;99225.63;4377267;32;20047;-71
2022/08/24 08:28:20;;;;;;;22.27;12.65;;;;;;;22.60;100.00;99229.84;4384462;32;20040;-70
2022/08/24 08:30:48;;;;;;;21.33;11.82;;;;;;;22.61;100.00;99211.47;4385703;32;20095;-70
2022/08/24 08:33:15;;;;;;;21.27;11.85;;;;;;;22.75;100.00;99214.84;4396314;32;20170;-70
2022/08/24 08:35:43;;;;;;;25.55;12.43;;;;;;;22.85;100.00;99222.72;4373602;32;20058;-73
2022/08/24 08:38:10;;;;;;;26.65;13.48;;;;;;;22.81;100.00;99224.47;4379266;32;20075;-70
2022/08/24 08:41:06;;;;;;;28.87;12.63;;;;;;;22.84;100.00;99243.03;4378831;32;20124;-70
2022/08/24 08:43:38;;;;;;;22.70;13.00;;;;;;;22.84;100.00;99237.56;4371846;32;20069;-72
2022/08/24 08:46:29;;;;;;;21.45;13.20;;;;;;;22.66;100.00;99203.06;4367245;32;20081;-69
2022/08/24 08:49:09;;;;;;;27.00;13.55;;;;;;;23.05;100.00;99236.84;4366764;32;20152;-70
2022/08/24 08:51:48;;;;;;;23.75;12.85;;;;;;;23.22;100.00;99208.56;4367913;32;20039;-73
2022/08/24 08:54:47;;;;;;;32.17;14.95;;;;;;;23.61;100.00;99244.25;4367911;32;20039;-69
2022/08/24 08:57:36;;;;;;;27.92;13.62;;;;;;;23.41;100.00;99249.38;4363197;32;20028;-69
2022/08/24 09:00:12;;;;;;;32.80;13.48;;;;;;;23.42;100.00;99245.47;4364181;32;20044;-72
2022/08/24 09:02:57;;;;;;;28.45;14.63;;;;;;;23.60;100.00;99240.72;4365697;32;20971;-70
2022/08/24 09:05:26;;;;;;;33.30;14.15;;;;;;;23.63;100.00;99247.47;4365234;32;20456;-70
2022/08/24 09:08:34;;;;;;;21.52;12.52;;;;;;;23.82;100.00;99247.88;4368197;32;20120;-71
2022/08/24 09:11:25;;;;;;;26.95;13.00;;;;;;;23.68;100.00;99236.31;4368603;32;20121;-70
2022/08/24 09:14:28;;;;;;;20.05;12.35;;;;;;;23.68;100.00;99203.31;4362277;32;20475;-69
2022/08/24 09:17:31;;;;;;;15.88;11.60;;;;;;;23.79;100.00;99244.97;4361595;32;20954;-70
2022/08/24 09:20:30;;;;;;;22.67;11.73;;;;;;;24.12;100.00;99250.59;4366291;32;20035;-69
2022/08/24 09:23:20;;;;;;;21.27;11.38;;;;;;;24.02;100.00;99223.50;4348618;32;20039;-69
2022/08/24 09:26:02;;;;;;;27.05;13.15;;;;;;;24.24;100.00;99256.16;4332501;33;20044;-70
2022/08/24 09:28:46;;;;;;;20.45;12.18;;;;;;;24.04;100.00;99257.75;4324361;33;20047;-69
2022/08/24 09:31:25;;;;;;;34.58;12.45;;;;;;;23.95;100.00;99246.03;4290835;33;20045;-70
2022/08/24 09:34:04;;;;;;;25.58;11.70;;;;;;;24.03;100.00;99256.16;4293092;33;20070;-71
2022/08/24 09:36:53;;;;;;;25.90;11.55;;;;;;;23.73;100.00;99219.62;4291085;33;20041;-73
2022/08/24 09:39:35;;;;;;;18.60;10.15;;;;;;;24.24;100.00;99258.91;4292762;33;20088;-70
2022/08/24 09:42:14;;;;;;;17.87;11.10;;;;;;;24.13;100.00;99252.22;4292932;33;20041;-74
2022/08/24 09:45:11;;;;;;;25.17;13.50;;;;;;;24.12;100.00;99250.59;4290698;33;20088;-69
2022/08/24 09:48:19;;;;;;;24.48;11.95;;;;;;;24.15;100.00;99254.63;4291611;33;20071;-69
2022/08/24 09:51:14;;;;;;;26.15;12.20;;;;;;;24.33;100.00;99250.56;4267634;33;20401;-73
2022/08/24 09:53:49;;;;;;;19.33;10.85;;;;;;;24.56;100.00;99256.56;4291275;33;20465;-71
2022/08/24 09:56:38;;;;;;;25.33;10.55;;;;;;;24.58;100.00;99262.53;4290017;33;20041;-73
2022/08/24 09:59:31;;;;;;;18.25;9.90;;;;;;;24.35;100.00;99253.00;4301178;33;20032;-69
2022/08/24 10:02:04;;;;;;;33.05;11.68;;;;;;;24.20;100.00;99257.97;4334184;32;20058;-70
2022/08/24 10:04:43;;;;;;;21.77;11.23;;;;;;;24.22;100.00;99263.97;4367445;32;20061;-69
2022/08/24 10:07:23;;;;;;;19.73;9.82;;;;;;;23.85;100.00;99225.22;4352214;32;20084;-70
2022/08/24 10:10:25;;;;;;;21.58;9.57;;;;;;;24.12;100.00;99250.59;4356011;32;20095;-71
2022/08/24 10:12:56;;;;;;;14.82;9.60;;;;;;;24.02;100.00;99251.00;4365551;32;20047;-71
2022/08/24 10:15:35;;;;;;;16.52;9.48;;;;;;;24.08;100.00;99250.47;4361702;32;20073;-70
2022/08/24 10:18:20;;;;;;;21.37;9.45;;;;;;;23.92;100.00;99242.00;4367574;32;20048;-71
2022/08/24 10:21:07;;;;;;;16.27;9.52;;;;;;;24.04;100.00;99248.72;4369860;32;20067;-71
2022/08/24 10:23:49;;;;;;;44.60;17.62;;;;;;;23.81;100.00;99213.25;4366168;32;20384;-73
2022/08/24 10:26:34;;;;;;;;;;;;;;;24.09;100.00;99229.25;4367647;32;20064;-71
2022/08/24 10:29:32;;;;;;;19.92;10.15;;;;;;;24.38;100.00;99252.31;4368695;32;19956;-70
2022/08/24 10:32:05;;;;;;;30.45;10.15;;;;;;;24.76;100.00;99251.38;4366521;32;20057;-71
2022/08/24 10:34:56;;;;;;;16.75;9.60;;;;;;;24.81;100.00;99253.91;4315829;33;20044;-72
2022/08/24 10:37:35;;;;;;;23.20;9.27;;;;;;;24.59;100.00;99220.12;4316948;33;20098;-71
2022/08/24 10:40:10;;;;;;;24.48;10.05;;;;;;;24.54;100.00;99214.81;4331992;33;20040;-74
2022/08/24 10:46:05;;;;;;;21.83;9.93;;;;;;;24.46;100.00;99243.22;4327334;33;20056;-75
2022/08/24 10:48:32;;;;;;;20.37;9.13;;;;;;;24.14;100.00;99209.81;4331722;33;20031;-77
2022/08/24 10:51:20;;;;;;;25.20;10.20;;;;;;;24.54;100.00;99245.06;4332247;33;20348;-73
2022/08/24 10:53:49;;;;;;;26.05;9.43;;;;;;;24.56;100.00;99253.81;4330082;33;20477;-75
2022/08/24 10:56:28;;;;;;;23.73;11.02;;;;;;;24.58;100.00;99250.72;4326555;33;20033;-71
2022/08/24 10:59:13;;;;;;;24.35;11.25;;;;;;;24.56;100.00;99208.97;4332913;33;20129;-74
2022/08/24 11:02:10;;;;;;;27.65;10.05;;;;;;;24.60;100.00;99242.94;4332839;33;20091;-74
2022/08/24 11:04:38;;;;;;;29.37;9.82;;;;;;;25.06;100.00;99237.44;4349436;32;20040;-70
2022/08/24 11:07:04;;;;;;;27.92;10.77;;;;;;;25.31;100.00;99238.31;4362490;32;20043;-71
2022/08/24 11:09:44;;;;;;;18.60;9.30;;;;;;;25.62;100.00;99243.25;4376171;32;20444;-71
2022/08/24 11:12:35;;;;;;;26.67;9.33;;;;;;;26.07;100.00;99253.34;4372061;32;20051;-71
2022/08/24 11:15:16;;;;;;;23.12;8.93;;;;;;;26.06;100.00;99246.22;4378997;32;20066;-73
2022/08/24 11:17:57;;;;;;;20.60;7.97;;;;;;;26.22;100.00;99248.25;4372965;32;20042;-70
2022/08/24 11:20:34;;;;;;;18.33;9.27;;;;;;;26.36;100.00;99245.09;4336283;33;20077;-73
2022/08/24 11:23:06;;;;;;;26.60;8.52;;;;;;;26.82;100.00;99253.87;4338391;33;20102;-70
2022/08/24 11:25:36;;;;;;;14.80;10.75;;;;;;;26.73;100.00;99256.81;4338112;33;20024;-71
2022/08/24 11:28:29;;;;;;;22.97;9.20;;;;;;;26.69;100.00;99255.91;4334098;33;20059;-70
2022/08/24 11:30:56;;;;;;;17.45;9.48;;;;;;;26.99;100.00;99250.00;4310004;33;20099;-72
2022/08/24 11:33:31;;;;;;;20.12;8.35;;;;;;;27.19;100.00;99240.66;4335654;33;20055;-69
2022/08/24 11:36:00;;;;;;;22.42;8.85;;;;;;;27.28;100.00;99209.28;4333769;33;20080;-77
2022/08/24 11:38:33;;;;;;;19.27;8.05;;;;;;;27.28;100.00;99214.81;4347259;33;20062;-76
2022/08/24 11:41:19;;;;;;;19.60;8.68;;;;;;;27.35;100.00;99242.66;4344817;32;20071;-73
2022/08/24 11:44:18;;;;;;;23.30;9.20;;;;;;;27.27;100.00;99240.81;4345787;32;20514;-77
2022/08/24 11:46:49;;;;;;;33.20;9.50;;;;;;;27.24;100.00;99238.81;4348526;33;20058;-74